createdAt,value
2022-09-16T00:02:14.263Z,14.99
2022-09-16T00:04:44.847Z,14.90
2022-09-16T00:07:14.971Z,14.83
2022-09-16T00:09:47.643Z,14.78
2022-09-16T00:12:17.794Z,14.77
2022-09-16T00:14:47.991Z,14.68
2022-09-16T00:17:18.284Z,14.77
2022-09-16T00:19:48.765Z,14.75
2022-09-16T00:22:19.283Z,14.77
2022-09-16T00:24:52.406Z,14.81
2022-09-16T00:27:22.549Z,14.79
2022-09-16T00:29:52.817Z,14.81
2022-09-16T00:32:24.217Z,14.85
2022-09-16T00:34:54.752Z,14.82
2022-09-16T00:37:25.084Z,14.79
2022-09-16T00:39:57.861Z,14.74
2022-09-16T00:42:28.204Z,14.66
2022-09-16T00:45:03.115Z,14.64
2022-09-16T00:47:39.205Z,14.56
2022-09-16T00:50:15.700Z,14.57
2022-09-16T00:52:46.215Z,14.60
2022-09-16T00:55:24.414Z,14.49
2022-09-16T00:57:55.389Z,14.52
2022-09-16T01:00:25.261Z,14.49
2022-09-16T01:02:55.605Z,14.43
2022-09-16T01:05:28.039Z,14.41
2022-09-16T01:07:58.528Z,14.39
2022-09-16T01:10:31.646Z,14.30
2022-09-16T01:13:05.870Z,14.37
2022-09-16T01:15:45.483Z,14.31
2022-09-16T01:18:27.680Z,14.32
2022-09-16T01:21:26.400Z,14.32
2022-09-16T01:24:30.821Z,14.42
2022-09-16T01:27:46.269Z,14.52
2022-09-16T01:30:54.582Z,14.49
2022-09-16T01:33:39.572Z,14.50
2022-09-16T01:36:36.986Z,14.50
2022-09-16T01:39:20.506Z,14.50
2022-09-16T01:42:21.731Z,14.62
2022-09-16T01:44:56.759Z,14.48
2022-09-16T01:47:39.460Z,14.47
2022-09-16T01:50:18.697Z,14.42
2022-09-16T01:53:00.781Z,14.44
2022-09-16T01:55:36.044Z,14.40
2022-09-16T01:58:13.493Z,14.41
2022-09-16T02:00:46.532Z,14.46
2022-09-16T02:03:26.607Z,14.40
2022-09-16T02:06:02.123Z,14.33
2022-09-16T02:08:40.903Z,14.35
2022-09-16T02:11:14.129Z,14.37
2022-09-16T02:13:48.959Z,14.41
2022-09-16T02:16:23.920Z,14.48
2022-09-16T02:19:02.236Z,14.44
2022-09-16T02:21:36.855Z,14.56
2022-09-16T02:24:13.842Z,14.54
2022-09-16T02:26:50.364Z,14.67
2022-09-16T02:29:26.052Z,14.69
2022-09-16T02:32:01.014Z,14.63
2022-09-16T02:34:40.234Z,14.55
2022-09-16T02:37:16.934Z,14.48
2022-09-16T02:39:51.343Z,14.43
2022-09-16T02:42:21.595Z,14.45
2022-09-16T02:44:51.698Z,14.43
2022-09-16T02:47:33.034Z,14.42
2022-09-16T02:50:14.806Z,14.42
2022-09-16T02:52:51.944Z,14.41
2022-09-16T02:55:37.813Z,14.25
2022-09-16T02:58:08.518Z,14.21
2022-09-16T03:00:44.702Z,14.18
2022-09-16T03:03:15.232Z,14.15
2022-09-16T03:06:22.496Z,14.14
2022-09-16T03:08:54.958Z,14.13
2022-09-16T03:16:02.228Z,14.16
2022-09-16T03:18:54.618Z,14.16
2022-09-16T03:21:35.184Z,14.11
2022-09-16T03:24:15.360Z,14.07
2022-09-16T03:26:51.425Z,14.05
2022-09-16T03:29:29.060Z,13.93
2022-09-16T03:32:07.628Z,13.93
2022-09-16T03:34:43.624Z,13.89
2022-09-16T03:37:20.440Z,13.91
2022-09-16T03:39:55.460Z,13.95
2022-09-16T03:42:25.937Z,13.89
2022-09-16T03:44:56.009Z,13.87
2022-09-16T03:47:26.196Z,13.90
2022-09-16T03:49:56.519Z,13.96
2022-09-16T03:52:29.280Z,13.87
2022-09-16T03:54:59.388Z,13.78
2022-09-16T03:57:30.774Z,13.74
2022-09-16T04:00:00.888Z,13.73
2022-09-16T04:02:30.978Z,13.76
2022-09-16T04:05:01.114Z,13.70
2022-09-16T04:07:35.656Z,13.81
2022-09-16T04:10:06.963Z,13.82
2022-09-16T04:12:37.368Z,13.78
2022-09-16T04:15:08.872Z,13.90
2022-09-16T04:17:38.969Z,13.93
2022-09-16T04:20:11.812Z,13.88
2022-09-16T04:22:44.493Z,13.90
2022-09-16T04:25:14.624Z,13.89
2022-09-16T04:27:44.637Z,13.89
2022-09-16T04:30:16.652Z,13.81
2022-09-16T04:32:46.825Z,13.80
2022-09-16T04:35:19.626Z,13.80
2022-09-16T04:37:52.941Z,13.79
2022-09-16T04:40:23.181Z,13.81
2022-09-16T04:42:54.094Z,13.77
2022-09-16T04:45:23.920Z,13.74
2022-09-16T04:47:59.396Z,13.78
2022-09-16T04:50:29.764Z,13.70
2022-09-16T04:53:02.463Z,13.67
2022-09-16T04:55:32.628Z,13.59
2022-09-16T04:58:03.174Z,13.70
2022-09-16T05:00:33.450Z,13.70
2022-09-16T05:03:03.503Z,13.76
2022-09-16T05:05:33.649Z,13.73
2022-09-16T05:08:06.360Z,13.63
2022-09-16T05:10:36.722Z,13.69
2022-09-16T05:13:06.822Z,13.74
2022-09-16T05:15:37.542Z,13.78
2022-09-16T05:18:07.741Z,13.82
2022-09-16T05:20:38.939Z,13.93
2022-09-16T05:23:11.663Z,14.09
2022-09-16T05:25:41.825Z,14.09
2022-09-16T05:28:11.842Z,14.24
2022-09-16T05:30:41.911Z,14.17
2022-09-16T05:33:12.428Z,14.10
2022-09-16T05:35:43.014Z,14.22
2022-09-16T05:38:16.198Z,14.25
2022-09-16T05:40:46.603Z,14.38
2022-09-16T05:43:16.706Z,14.41
2022-09-16T05:45:46.747Z,14.39
2022-09-16T05:48:16.844Z,14.32
2022-09-16T05:50:55.047Z,14.45
2022-09-16T05:53:28.765Z,14.34
2022-09-16T05:56:00.352Z,14.10
2022-09-16T05:58:32.833Z,14.01
2022-09-16T06:01:04.048Z,14.01
2022-09-16T06:03:35.391Z,14.19
2022-09-16T06:06:07.800Z,14.06
2022-09-16T06:08:41.186Z,14.06
2022-09-16T06:11:14.217Z,14.13
2022-09-16T06:13:44.736Z,14.25
2022-09-16T06:16:15.461Z,14.40
2022-09-16T06:18:45.509Z,14.33
2022-09-16T06:21:15.572Z,14.39
2022-09-16T06:23:48.353Z,14.38
2022-09-16T06:26:21.950Z,14.47
2022-09-16T06:28:52.990Z,14.34
2022-09-16T06:31:25.997Z,14.48
2022-09-16T06:33:57.663Z,14.41
2022-09-16T06:36:30.010Z,14.62
2022-09-16T06:39:02.816Z,14.79
2022-09-16T06:41:35.609Z,14.70
2022-09-16T06:44:05.870Z,14.69
2022-09-16T06:46:35.943Z,14.69
2022-09-16T06:49:06.849Z,14.69
2022-09-16T06:51:37.573Z,14.65
2022-09-16T06:54:12.016Z,14.67
2022-09-16T06:56:42.203Z,14.87
2022-09-16T06:59:14.533Z,15.16
2022-09-16T07:01:44.729Z,15.27
2022-09-16T07:04:15.176Z,15.26
2022-09-16T07:09:38.961Z,15.09
2022-09-16T07:12:09.936Z,15.02
2022-09-16T07:14:39.715Z,14.97
2022-09-16T07:17:09.983Z,15.13
2022-09-16T07:19:42.390Z,15.23
2022-09-16T07:22:12.479Z,15.25
2022-09-16T07:24:46.111Z,15.39
2022-09-16T07:27:16.201Z,15.22
2022-09-16T07:29:46.152Z,15.25
2022-09-16T07:32:16.237Z,15.29
2022-09-16T07:34:46.269Z,15.33
2022-09-16T07:37:18.095Z,15.41
2022-09-16T07:39:50.958Z,15.64
2022-09-16T07:42:21.650Z,16.01
2022-09-16T07:44:51.705Z,16.36
2022-09-16T07:47:22.444Z,16.27
2022-09-16T07:49:55.999Z,16.45
2022-09-16T07:52:29.507Z,16.65
2022-09-16T07:55:02.210Z,16.85
2022-09-16T07:57:32.343Z,17.50
2022-09-16T08:00:02.435Z,17.87
2022-09-16T08:02:41.924Z,17.43
2022-09-16T08:05:13.429Z,17.10
2022-09-16T08:07:43.524Z,16.74
2022-09-16T08:10:16.384Z,16.61
2022-09-16T08:12:50.297Z,16.50
2022-09-16T08:15:20.343Z,16.46
2022-09-16T08:17:50.400Z,16.46
2022-09-16T08:20:20.658Z,16.28
2022-09-16T08:22:53.723Z,16.38
2022-09-16T08:25:29.983Z,16.42
2022-09-16T08:28:00.127Z,16.58
2022-09-16T08:30:30.215Z,16.77
2022-09-16T08:33:00.738Z,16.91
2022-09-16T08:35:30.796Z,16.99
2022-09-16T08:38:01.657Z,17.10
2022-09-16T08:40:37.502Z,17.13
2022-09-16T08:43:16.190Z,17.47
2022-09-16T08:45:56.645Z,17.77
2022-09-16T08:48:39.144Z,18.47
2022-09-16T08:51:12.700Z,18.76
2022-09-16T08:53:48.795Z,20.70
2022-09-16T08:56:25.725Z,21.84
2022-09-16T08:59:01.285Z,22.28
2022-09-16T09:01:45.821Z,22.92
2022-09-16T09:04:16.724Z,21.46
2022-09-16T09:06:59.118Z,20.27
2022-09-16T09:09:55.305Z,19.26
2022-09-16T09:12:37.942Z,18.27
2022-09-16T09:15:30.600Z,18.23
2022-09-16T09:18:20.327Z,17.85
2022-09-16T09:21:00.029Z,17.84
2022-09-16T09:23:47.715Z,17.76
2022-09-16T09:26:24.242Z,17.76
2022-09-16T09:29:33.968Z,17.71
2022-09-16T09:32:20.469Z,17.54
2022-09-16T09:35:18.701Z,17.49
2022-09-16T09:38:17.731Z,17.69
2022-09-16T09:40:56.803Z,17.91
2022-09-16T09:43:34.674Z,19.27
2022-09-16T09:46:13.873Z,20.70
2022-09-16T09:48:51.066Z,21.14
2022-09-16T09:51:32.867Z,20.22
2022-09-16T09:54:08.157Z,19.63
2022-09-16T09:56:43.126Z,20.54
2022-09-16T09:59:30.976Z,19.74
2022-09-16T10:02:04.185Z,18.66
2022-09-16T10:04:41.223Z,17.94
2022-09-16T10:07:12.372Z,17.11
2022-09-16T10:09:52.785Z,16.71
2022-09-16T10:12:35.174Z,16.94
2022-09-16T10:15:06.576Z,18.68
2022-09-16T10:17:39.696Z,20.79
2022-09-16T10:20:29.744Z,22.00
2022-09-16T10:23:04.051Z,22.89
2022-09-16T10:25:36.106Z,23.70
2022-09-16T10:28:09.928Z,23.37
2022-09-16T10:30:49.737Z,23.27
2022-09-16T10:33:28.176Z,23.43
2022-09-16T10:36:00.872Z,24.00
2022-09-16T10:38:40.396Z,24.38
2022-09-16T10:41:20.959Z,25.36
2022-09-16T10:43:54.404Z,24.59
2022-09-16T10:46:24.627Z,22.74
2022-09-16T10:49:02.883Z,22.11
2022-09-16T10:51:34.948Z,22.84
2022-09-16T10:54:08.697Z,23.08
2022-09-16T10:56:51.971Z,22.55
2022-09-16T10:59:22.143Z,21.38
2022-09-16T11:02:04.818Z,20.28
2022-09-16T11:05:06.684Z,19.36
2022-09-16T11:07:44.709Z,18.53
2022-09-16T11:10:26.106Z,17.80
2022-09-16T11:13:35.588Z,17.87
2022-09-16T11:16:27.169Z,20.04
2022-09-16T11:19:09.366Z,23.09
2022-09-16T11:22:14.817Z,23.82
2022-09-16T11:25:24.740Z,25.33
2022-09-16T11:28:09.245Z,24.07
2022-09-16T11:30:49.263Z,23.39
2022-09-16T11:33:29.444Z,22.71
2022-09-16T11:36:34.830Z,22.51
2022-09-16T11:39:26.699Z,23.70
2022-09-16T11:42:06.941Z,23.28
2022-09-16T11:44:47.210Z,25.10
2022-09-16T11:47:52.754Z,25.42
2022-09-16T11:50:46.471Z,22.81
2022-09-16T11:53:44.451Z,21.95
2022-09-16T11:56:24.613Z,21.77
2022-09-16T11:59:01.139Z,21.51
2022-09-16T12:01:37.841Z,20.71
2022-09-16T12:04:17.780Z,19.82
2022-09-16T12:06:58.705Z,19.43
2022-09-16T12:09:39.306Z,19.02
2022-09-16T12:12:16.949Z,18.53
2022-09-16T12:14:53.868Z,18.37
2022-09-16T12:17:27.974Z,18.21
2022-09-16T12:20:06.621Z,18.36
2022-09-16T12:22:42.923Z,18.57
2022-09-16T12:25:21.164Z,20.06
2022-09-16T12:28:01.299Z,19.80
2022-09-16T12:30:38.945Z,20.27
2022-09-16T12:33:15.604Z,22.91
2022-09-16T12:35:57.377Z,25.27
2022-09-16T12:38:28.089Z,27.01
2022-09-16T12:41:32.701Z,27.93
2022-09-16T12:44:47.411Z,28.76
2022-09-16T12:47:44.103Z,29.44
2022-09-16T12:50:52.237Z,28.61
2022-09-16T12:53:54.512Z,28.92
2022-09-16T12:56:45.539Z,29.64
2022-09-16T13:00:05.640Z,30.44
2022-09-16T13:02:41.019Z,29.27
2022-09-16T13:05:22.855Z,29.83
2022-09-16T13:07:56.775Z,30.28
2022-09-16T13:10:55.784Z,31.07
2022-09-16T13:13:34.183Z,30.58
2022-09-16T13:16:10.369Z,29.55
2022-09-16T13:18:44.883Z,26.77
2022-09-16T13:21:28.157Z,25.53
2022-09-16T13:24:07.019Z,27.20
2022-09-16T13:26:45.921Z,24.88
2022-09-16T13:29:34.851Z,23.15
2022-09-16T13:32:08.303Z,22.67
2022-09-16T13:34:38.515Z,24.64
2022-09-16T13:37:18.177Z,26.01
2022-09-16T13:39:50.347Z,27.33
2022-09-16T13:42:24.986Z,28.53
2022-09-16T13:44:56.091Z,29.58
2022-09-16T13:47:41.783Z,28.94
2022-09-16T13:50:18.038Z,26.81
2022-09-16T13:52:48.260Z,24.97
2022-09-16T13:55:27.210Z,23.43
2022-09-16T13:58:04.094Z,22.59
2022-09-16T14:00:42.250Z,22.60
2022-09-16T14:03:43.429Z,22.68
2022-09-16T14:06:31.502Z,23.01
2022-09-16T14:09:24.367Z,21.68
2022-09-16T14:12:03.996Z,20.96
2022-09-16T14:14:52.882Z,20.48
2022-09-16T14:17:27.670Z,20.06
2022-09-16T14:20:03.184Z,20.09
2022-09-16T14:22:33.872Z,20.05
2022-09-16T14:25:28.458Z,19.95
2022-09-16T14:27:54.776Z,20.28
2022-09-16T14:30:24.848Z,21.03
2022-09-16T14:32:54.986Z,23.50
2022-09-16T14:35:29.780Z,25.40
2022-09-16T14:38:06.575Z,26.47
2022-09-16T14:40:43.543Z,26.33
2022-09-16T14:43:21.715Z,26.78
2022-09-16T14:48:37.222Z,28.19
2022-09-16T14:51:20.649Z,28.30
2022-09-16T14:54:12.222Z,28.63
2022-09-16T14:56:43.239Z,29.00
2022-09-16T14:59:16.021Z,28.98
2022-09-16T15:01:46.642Z,28.97
2022-09-16T15:04:26.068Z,29.28
2022-09-16T15:07:11.947Z,27.95
2022-09-16T15:09:50.862Z,28.50
2022-09-16T15:12:28.432Z,28.61
2022-09-16T15:14:59.209Z,28.80
2022-09-16T15:17:31.162Z,27.79
2022-09-16T15:20:03.347Z,28.69
2022-09-16T15:22:36.117Z,29.28
2022-09-16T15:25:06.537Z,29.30
2022-09-16T15:27:36.668Z,27.93
2022-09-16T15:30:07.810Z,26.90
2022-09-16T15:32:47.634Z,25.45
2022-09-16T15:35:27.369Z,25.50
2022-09-16T15:38:00.109Z,25.31
2022-09-16T15:40:36.659Z,25.51
2022-09-16T15:43:20.810Z,25.18
2022-09-16T15:46:01.973Z,25.84
2022-09-16T15:48:36.726Z,25.63
2022-09-16T15:51:12.869Z,25.46
2022-09-16T15:53:51.730Z,25.36
2022-09-16T15:56:28.412Z,24.77
2022-09-16T15:59:04.743Z,24.16
2022-09-16T16:01:52.519Z,24.17
2022-09-16T16:04:29.898Z,22.93
2022-09-16T16:07:02.282Z,21.79
2022-09-16T16:09:39.757Z,20.91
2022-09-16T16:12:13.703Z,19.96
2022-09-16T16:14:44.490Z,19.38
2022-09-16T16:17:18.017Z,18.96
2022-09-16T16:19:50.644Z,18.80
2022-09-16T16:22:21.223Z,18.29
2022-09-16T16:24:53.978Z,17.95
2022-09-16T16:27:24.099Z,17.73
2022-09-16T16:29:54.320Z,17.43
2022-09-16T16:32:24.551Z,17.12
2022-09-16T16:34:58.092Z,17.25
2022-09-16T16:37:45.490Z,17.04
2022-09-16T16:40:19.958Z,16.76
2022-09-16T16:42:50.131Z,16.64
2022-09-16T16:45:21.221Z,16.60
2022-09-16T16:47:51.353Z,16.34
2022-09-16T16:50:21.512Z,16.24
2022-09-16T16:52:54.886Z,16.23
2022-09-16T16:55:27.749Z,16.24
2022-09-16T16:57:57.915Z,16.03
2022-09-16T17:00:28.080Z,15.80
2022-09-16T17:02:58.238Z,15.61
2022-09-16T17:05:28.341Z,15.51
2022-09-16T17:07:58.836Z,15.50
2022-09-16T17:10:31.622Z,15.34
2022-09-16T17:13:01.782Z,15.25
2022-09-16T17:15:31.857Z,15.30
2022-09-16T17:18:01.972Z,15.15
2022-09-16T17:20:32.017Z,15.11
2022-09-16T17:23:02.152Z,15.12
2022-09-16T17:25:37.248Z,15.06
2022-09-16T17:28:07.755Z,15.01
2022-09-16T17:30:37.904Z,14.97
2022-09-16T17:33:08.051Z,14.90
2022-09-16T17:35:38.043Z,14.88
2022-09-16T17:38:08.147Z,14.84
2022-09-16T17:40:40.985Z,14.84
2022-09-16T17:43:11.129Z,14.79
2022-09-16T17:45:41.135Z,14.68
2022-09-16T17:48:11.209Z,14.65
2022-09-16T17:50:41.462Z,14.64
2022-09-16T17:53:11.792Z,14.59
2022-09-16T17:55:44.450Z,14.54
2022-09-16T17:58:15.053Z,14.58
2022-09-16T18:00:45.991Z,14.53
2022-09-16T18:03:16.146Z,14.54
2022-09-16T18:05:46.833Z,14.49
2022-09-16T18:08:17.011Z,14.41
2022-09-16T18:10:55.328Z,14.31
2022-09-16T18:13:25.468Z,14.29
2022-09-16T18:15:55.560Z,14.28
2022-09-16T18:18:25.735Z,14.31
2022-09-16T18:20:57.526Z,14.28
2022-09-16T18:23:28.886Z,14.27
2022-09-16T18:26:07.615Z,14.23
2022-09-16T18:29:05.263Z,14.19
2022-09-16T18:31:29.408Z,14.17
2022-09-16T18:33:59.832Z,14.16
2022-09-16T18:36:32.842Z,14.15
2022-09-16T18:39:03.077Z,14.08
2022-09-16T18:41:40.048Z,14.10
2022-09-16T18:44:15.193Z,14.05
2022-09-16T18:46:45.776Z,14.03
2022-09-16T18:49:18.285Z,13.96
2022-09-16T18:51:52.480Z,13.91
2022-09-16T18:54:28.242Z,13.95
2022-09-16T18:57:03.645Z,13.82
2022-09-16T18:59:36.846Z,13.80
2022-09-16T19:02:08.724Z,13.78
2022-09-16T19:04:42.896Z,13.79
2022-09-16T19:07:17.899Z,13.79
2022-09-16T19:09:48.614Z,13.76
2022-09-16T19:12:21.308Z,13.88
2022-09-16T19:14:54.322Z,13.84
2022-09-16T19:17:25.505Z,13.77
2022-09-16T19:19:57.207Z,13.77
2022-09-16T19:22:27.750Z,13.75
2022-09-16T19:24:57.857Z,13.70
2022-09-16T19:27:30.700Z,13.71
2022-09-16T19:30:00.877Z,13.60
2022-09-16T19:32:31.013Z,13.59
2022-09-16T19:35:01.270Z,13.62
2022-09-16T19:37:31.270Z,13.51
2022-09-16T19:40:01.311Z,13.49
2022-09-16T19:42:34.010Z,13.49
2022-09-16T19:45:04.075Z,13.39
2022-09-16T19:47:34.083Z,13.40
2022-09-16T19:50:04.157Z,13.37
2022-09-16T19:52:35.521Z,13.32
2022-09-16T19:55:05.698Z,13.34
2022-09-16T19:57:39.650Z,13.28
2022-09-16T20:00:16.988Z,13.29
2022-09-16T20:02:47.907Z,13.32
2022-09-16T20:05:17.873Z,13.36
2022-09-16T20:07:47.968Z,13.41
2022-09-16T20:10:19.035Z,13.39
2022-09-16T20:12:57.290Z,13.34
2022-09-16T20:15:29.393Z,13.33
2022-09-16T20:17:59.512Z,13.30
2022-09-16T20:20:29.526Z,13.35
2022-09-16T20:22:59.542Z,13.40
2022-09-16T20:25:29.843Z,13.30
2022-09-16T20:28:02.618Z,13.24
2022-09-16T20:30:32.964Z,13.27
2022-09-16T20:33:03.307Z,13.24
2022-09-16T20:35:36.874Z,13.25
2022-09-16T20:38:07.430Z,13.15
2022-09-16T20:40:38.486Z,13.05
2022-09-16T20:43:11.019Z,13.03
2022-09-16T20:45:41.434Z,13.03
2022-09-16T20:48:11.662Z,12.97
2022-09-16T20:50:42.183Z,12.98
2022-09-16T20:53:14.714Z,12.96
2022-09-16T20:55:44.801Z,12.90
2022-09-16T20:58:17.563Z,12.78
2022-09-16T21:00:49.776Z,12.70
2022-09-16T21:03:20.036Z,12.69
2022-09-16T21:05:50.074Z,12.67
2022-09-16T21:08:20.101Z,12.64
2022-09-16T21:10:50.187Z,12.62
2022-09-16T21:13:25.089Z,12.59
2022-09-16T21:15:59.129Z,12.55
2022-09-16T21:18:30.619Z,12.55
2022-09-16T21:21:06.397Z,12.53
2022-09-16T21:23:38.334Z,12.52
2022-09-16T21:26:12.891Z,12.50
2022-09-16T21:28:47.269Z,12.41
2022-09-16T21:31:18.978Z,12.32
2022-09-16T21:33:51.923Z,12.31
2022-09-16T21:36:24.521Z,12.24
2022-09-16T21:38:55.358Z,12.24
2022-09-16T21:41:26.962Z,12.26
2022-09-16T21:44:00.850Z,12.19
2022-09-16T21:46:33.288Z,12.25
2022-09-16T21:49:05.476Z,12.27
2022-09-16T21:51:40.179Z,12.27
2022-09-16T21:54:15.493Z,12.22
2022-09-16T21:56:48.120Z,12.29
2022-09-16T21:59:22.128Z,12.18
2022-09-16T22:01:53.813Z,12.25
2022-09-16T22:04:26.194Z,12.22
2022-09-16T22:06:57.112Z,12.12
2022-09-16T22:09:27.002Z,12.06
2022-09-16T22:11:59.244Z,11.99
2022-09-16T22:14:31.971Z,11.99
2022-09-16T22:17:02.040Z,12.00
2022-09-16T22:19:32.172Z,12.01
2022-09-16T22:22:02.222Z,11.97
2022-09-16T22:24:32.275Z,11.94
2022-09-16T22:27:02.404Z,11.85
2022-09-16T22:29:35.062Z,11.86
2022-09-16T22:32:05.410Z,11.86
2022-09-16T22:34:38.036Z,11.77
2022-09-16T22:37:09.398Z,11.78
2022-09-16T22:39:40.721Z,11.75
2022-09-16T22:42:13.847Z,11.85
2022-09-16T22:44:46.543Z,11.87
2022-09-16T22:47:16.815Z,11.77
2022-09-16T22:49:46.905Z,11.73
2022-09-16T22:52:16.983Z,11.70
2022-09-16T22:54:47.071Z,11.74
2022-09-16T22:57:17.210Z,11.69
2022-09-16T22:59:50.031Z,11.72
2022-09-16T23:02:20.398Z,11.62
2022-09-16T23:04:50.559Z,11.66
2022-09-16T23:07:20.589Z,11.63
2022-09-16T23:09:50.674Z,11.51
2022-09-16T23:12:20.644Z,11.44
2022-09-16T23:14:53.271Z,11.46
2022-09-16T23:17:23.328Z,11.52
2022-09-16T23:19:53.352Z,11.47
2022-09-16T23:22:23.567Z,11.48
2022-09-16T23:24:53.647Z,11.46
2022-09-16T23:27:23.662Z,11.43
2022-09-16T23:29:56.461Z,11.43
2022-09-16T23:32:26.599Z,11.42
2022-09-16T23:34:56.607Z,11.40
2022-09-16T23:37:26.690Z,11.35
2022-09-16T23:39:56.816Z,11.40
2022-09-16T23:42:27.304Z,11.37
2022-09-16T23:45:00.209Z,11.33
2022-09-16T23:47:30.550Z,11.36
2022-09-16T23:50:00.672Z,11.38
2022-09-16T23:52:30.665Z,11.49
2022-09-16T23:55:00.717Z,11.49
2022-09-16T23:57:30.847Z,11.52
